Thursday, June 29, 2017, 5:08 AM EDT

KLNS, Lancaster Airport

Location: Lititz, PA, United States Lat: 40.117
Local Time: 5:08 AM EDT ( 9:08 GMT) Lon: -76.3
Time Zone: US/Eastern Elev: 403 ft

Show me the last for .
Show Decoded

2017-06-29 04:53 METAR KLNS 290853Z AUTO 10003KT 10SM CLR 17/14 A3014 RMK AO2 SLP204 T01670139
                 55001 =
2017-06-29 03:53 METAR KLNS 290753Z AUTO 00000KT 10SM CLR 19/13 A3014 RMK AO2 SLP203 T01940133 =
2017-06-29 02:53 METAR KLNS 290653Z AUTO 00000KT 10SM CLR 20/13 A3013 RMK AO2 SLP201 T02000133 =
2017-06-29 01:53 METAR KLNS 290553Z AUTO 22005KT 10SM CLR 20/14 A3014 RMK AO2 SLP204 T02000139
                 10239 20194 53001 =
2017-06-29 00:53 METAR KLNS 290453Z AUTO 19005KT 10SM CLR 19/14 A3014 RMK AO2 SLP204 T01940139
                 402670122 =
2017-06-28 23:53 METAR KLNS 290353Z AUTO 19004KT 10SM CLR 20/13 A3013 RMK AO2 SLP200 T02000128 =
2017-06-28 22:53 METAR KLNS 290253Z 20006KT 10SM CLR 21/12 A3014 RMK AO2 SLP204 T02110122 53009 =
2017-06-28 21:53 METAR KLNS 290153Z 20007KT 10SM CLR 22/12 A3013 RMK AO2 SLP202 T02170117 =
2017-06-28 20:53 METAR KLNS 290053Z 21007KT 10SM CLR 23/11 A3012 RMK AO2 SLP197 T02280106 =
2017-06-28 19:53 METAR KLNS 282353Z 19004KT 10SM CLR 24/11 A3011 RMK AO2 SLP195 T02390106 10267
                 20239 56007 =
2017-06-28 18:53 METAR KLNS 282253Z 23008KT 10SM CLR 24/09 A3012 RMK AO2 SLP198 T02440094 =
2017-06-28 17:53 METAR KLNS 282153Z 25005KT 10SM CLR 26/10 A3012 RMK AO2 SLP197 T02560100 =
2017-06-28 16:53 METAR KLNS 282053Z 23007KT 10SM SCT075 26/11 A3013 RMK AO2 SLP202 T02560106
                 58004 =
2017-06-28 15:53 METAR KLNS 281953Z 25010KT 10SM FEW070 25/10 A3014 RMK AO2 SLP205 T02500100 =
2017-06-28 14:53 METAR KLNS 281853Z 28008KT 10SM FEW070 26/11 A3014 RMK AO2 SLP205 T02560106 =
2017-06-28 13:53 METAR KLNS 281753Z 33004KT 10SM CLR 25/09 A3015 RMK AO2 SLP206 T02500094 10250
                 20167 58011 =
2017-06-28 12:53 METAR KLNS 281653Z 28009KT 10SM FEW065 24/10 A3018 RMK AO2 SLP216 T02440100 =
2017-06-28 11:53 METAR KLNS 281553Z 29007G15KT 10SM CLR 23/11 A3018 RMK AO2 SLP216 T02330106 =
2017-06-28 10:53 METAR KLNS 281453Z 27007KT 10SM CLR 22/11 A3018 RMK AO2 SLP218 T02220111 51006 =
2017-06-28 09:53 METAR KLNS 281353Z 28008KT 10SM CLR 21/12 A3017 RMK AO2 SLP215 T02110117 =
2017-06-28 08:53 METAR KLNS 281253Z 28010KT 10SM CLR 19/12 A3018 RMK AO2 SLP216 T01940122 =
2017-06-28 07:53 METAR KLNS 281153Z 27005KT 10SM CLR 17/12 A3016 RMK AO2 SLP211 T01670122 10167
                 20122 51015 =
2017-06-28 06:53 METAR KLNS 281053Z 27003KT 10SM CLR 14/12 A3015 RMK AO2 SLP209 T01440117 =
2017-06-28 05:53 METAR KLNS 280953Z 26005KT 10SM CLR 12/10 A3013 RMK AO2 SLP203 T01220100 =

Support USWX by starting your Amazon purchase here.